Time;durP1;ratioP1;P1;durP2;ratioP2;P2;SDS_P1;SDS_P2;PMS_P1;PMS_P2;Temp;Humidity;BMP_temperature;BMP_pressure;BME280_temperature;BME280_humidity;BME280_pressure;Samples;Min_cycle;Max_cycle;Signal;HPM_P1;HPM_P2
2024/03/05 00:00:58;;;;;;;6.50;2.72;;;4.10;99.90;;;;;;5054198;28;20032;-75
2024/03/05 00:03:24;;;;;;;7.35;2.80;;;4.10;99.90;;;;;;5054417;28;20387;-75
2024/03/05 00:05:50;;;;;;;4.43;3.28;;;4.00;99.90;;;;;;5053050;28;20082;-74
2024/03/05 00:08:16;;;;;;;5.40;2.42;;;3.90;99.90;;;;;;5054112;28;20508;-75
2024/03/05 00:10:42;;;;;;;6.82;2.53;;;3.90;99.90;;;;;;5054068;28;20151;-74
2024/03/05 00:13:07;;;;;;;4.28;2.83;;;3.90;99.90;;;;;;5053793;28;20056;-75
2024/03/05 00:15:33;;;;;;;8.13;2.75;;;3.90;99.90;;;;;;5054123;28;20024;-74
2024/03/05 00:17:59;;;;;;;7.10;2.55;;;3.90;99.90;;;;;;5053993;28;20391;-74
2024/03/05 00:20:25;;;;;;;5.57;2.60;;;3.90;99.90;;;;;;5053850;28;20024;-76
2024/03/05 00:22:51;;;;;;;10.77;3.20;;;3.80;99.90;;;;;;5053802;28;20040;-74
2024/03/05 00:25:17;;;;;;;5.30;3.55;;;3.80;99.90;;;;;;5054239;28;20033;-75
2024/03/05 00:27:44;;;;;;;3.63;2.65;;;3.90;99.90;;;;;;5054035;28;20106;-75
2024/03/05 00:30:12;;;;;;;6.90;2.80;;;3.80;99.90;;;;;;5053884;28;20025;-75
2024/03/05 00:32:37;;;;;;;5.43;3.33;;;3.70;99.90;;;;;;5053658;28;20025;-75
2024/03/05 00:35:07;;;;;;;5.65;3.08;;;3.70;99.90;;;;;;5053831;28;20075;-74
2024/03/05 00:37:35;;;;;;;6.10;2.80;;;3.70;99.90;;;;;;5053798;28;20060;-74
2024/03/05 00:40:04;;;;;;;5.60;3.00;;;3.60;99.90;;;;;;5053586;28;20045;-75
2024/03/05 00:42:30;;;;;;;3.05;2.40;;;3.70;99.90;;;;;;5053578;28;20434;-75
2024/03/05 00:44:55;;;;;;;7.20;2.70;;;3.50;99.90;;;;;;5053712;28;20028;-75
2024/03/05 00:47:21;;;;;;;10.68;2.70;;;3.50;99.90;;;;;;5053550;28;20021;-76
2024/03/05 00:49:46;;;;;;;4.97;2.65;;;3.50;99.90;;;;;;5053222;28;20029;-75
2024/03/05 00:52:13;;;;;;;7.70;2.63;;;3.50;99.90;;;;;;5053298;28;20063;-74
2024/03/05 00:54:39;;;;;;;9.82;3.10;;;3.50;99.90;;;;;;5053541;28;20488;-74
2024/03/05 00:57:04;;;;;;;4.25;2.53;;;3.40;99.90;;;;;;5053604;28;20132;-75
2024/03/05 00:59:30;;;;;;;3.58;2.95;;;3.40;99.90;;;;;;5053337;28;20028;-75
2024/03/05 01:01:56;;;;;;;8.73;3.55;;;3.50;99.90;;;;;;5053146;28;20023;-75
2024/03/05 01:04:22;;;;;;;6.65;2.30;;;3.40;99.90;;;;;;5053254;28;20067;-76
2024/03/05 01:06:47;;;;;;;4.63;2.42;;;3.40;99.90;;;;;;5053187;28;20439;-76
2024/03/05 01:09:18;;;;;;;4.13;2.80;;;3.30;99.90;;;;;;5053136;28;20035;-75
2024/03/05 01:11:44;;;;;;;7.15;2.50;;;3.30;99.90;;;;;;5052909;28;20086;-75
2024/03/05 01:14:09;;;;;;;5.30;2.60;;;3.30;99.90;;;;;;5051681;28;20036;-74
2024/03/05 01:16:36;;;;;;;7.50;3.20;;;3.30;99.90;;;;;;5052986;28;20025;-74
2024/03/05 01:19:02;;;;;;;5.75;2.70;;;3.30;99.90;;;;;;5052231;28;20029;-75
2024/03/05 01:21:28;;;;;;;6.43;2.72;;;3.40;99.90;;;;;;5052684;28;20025;-74
2024/03/05 01:23:53;;;;;;;7.72;2.90;;;3.30;99.90;;;;;;5052943;28;20032;-74
2024/03/05 01:26:19;;;;;;;4.53;2.33;;;3.40;99.90;;;;;;5052738;28;20048;-75
2024/03/05 01:28:45;;;;;;;8.25;2.67;;;3.50;99.90;;;;;;5051597;28;20079;-74
2024/03/05 01:31:11;;;;;;;10.77;2.97;;;3.30;99.90;;;;;;5052491;28;20025;-75
2024/03/05 01:33:39;;;;;;;6.10;2.38;;;3.30;99.90;;;;;;5052634;28;20029;-75
2024/03/05 01:36:05;;;;;;;8.48;3.10;;;3.20;99.90;;;;;;5052677;28;20033;-75
2024/03/05 01:38:30;;;;;;;7.13;2.58;;;3.20;99.90;;;;;;5052579;28;20025;-76
2024/03/05 01:40:56;;;;;;;8.32;3.42;;;3.20;99.90;;;;;;5052152;28;20033;-75
2024/03/05 01:43:22;;;;;;;12.43;2.83;;;3.40;99.90;;;;;;5052635;28;20021;-75
2024/03/05 01:45:50;;;;;;;3.03;2.40;;;3.30;99.90;;;;;;5052402;28;20025;-74
2024/03/05 01:48:17;;;;;;;3.83;2.53;;;3.30;99.90;;;;;;5052615;28;20025;-76
2024/03/05 01:50:44;;;;;;;6.72;3.00;;;3.30;99.90;;;;;;5052338;28;20036;-74
2024/03/05 01:53:15;;;;;;;5.93;2.63;;;3.30;99.90;;;;;;5052039;28;20511;-76
2024/03/05 01:55:41;;;;;;;9.43;2.78;;;3.40;99.90;;;;;;5052411;28;20033;-75
2024/03/05 01:58:09;;;;;;;8.82;2.70;;;3.30;99.90;;;;;;5052175;28;20032;-75
2024/03/05 02:00:38;;;;;;;5.47;3.15;;;3.30;99.90;;;;;;5052133;28;20377;-74
2024/03/05 02:03:04;;;;;;;8.05;3.33;;;3.10;99.90;;;;;;5052003;28;20479;-75
2024/03/05 02:05:32;;;;;;;12.77;3.65;;;3.10;99.90;;;;;;5052258;28;20025;-75
2024/03/05 02:07:59;;;;;;;9.60;3.58;;;3.10;99.90;;;;;;5052316;28;20109;-75
2024/03/05 02:10:26;;;;;;;9.63;4.00;;;3.00;99.90;;;;;;5052009;28;20045;-74
2024/03/05 02:12:52;;;;;;;11.82;3.70;;;3.00;99.90;;;;;;5051838;28;20052;-75
2024/03/05 02:15:19;;;;;;;11.80;3.40;;;2.80;99.90;;;;;;5052092;28;20056;-74
2024/03/05 02:17:45;;;;;;;11.60;3.00;;;2.80;99.90;;;;;;5052051;28;20082;-75
2024/03/05 02:20:15;;;;;;;10.35;3.95;;;2.70;99.90;;;;;;5052044;28;20077;-75
2024/03/05 02:22:41;;;;;;;10.73;3.00;;;2.70;99.90;;;;;;5051836;28;20036;-75
2024/03/05 02:25:08;;;;;;;4.82;2.67;;;2.70;99.90;;;;;;5052102;28;20021;-75
2024/03/05 02:27:36;;;;;;;9.18;3.30;;;2.60;99.90;;;;;;5051900;28;20550;-75
2024/03/05 02:30:10;;;;;;;3.45;2.42;;;2.60;99.90;;;;;;5050670;28;20405;-75
2024/03/05 02:32:38;;;;;;;5.78;2.58;;;2.60;99.90;;;;;;5051724;28;20479;-75
2024/03/05 02:35:05;;;;;;;4.65;2.75;;;2.70;99.90;;;;;;5051798;28;20086;-75
2024/03/05 02:37:30;;;;;;;5.63;1.67;;;2.50;99.90;;;;;;5051816;28;20035;-75
2024/03/05 02:39:56;;;;;;;10.85;2.05;;;2.40;99.90;;;;;;5051659;28;20025;-75
2024/03/05 02:42:22;;;;;;;5.63;2.70;;;2.40;99.90;;;;;;5051583;28;20062;-75
2024/03/05 02:44:48;;;;;;;3.00;2.22;;;2.40;99.90;;;;;;5052130;28;20049;-76
2024/03/05 02:47:13;;;;;;;9.82;2.65;;;2.40;99.90;;;;;;5051856;28;20049;-75
2024/03/05 02:49:40;;;;;;;2.83;2.50;;;2.40;99.90;;;;;;5051761;28;20025;-75
2024/03/05 02:52:06;;;;;;;6.53;2.33;;;2.40;99.90;;;;;;5051670;28;20027;-76
2024/03/05 02:54:33;;;;;;;9.10;2.20;;;2.30;99.90;;;;;;5051901;28;20043;-75
2024/03/05 02:56:59;;;;;;;3.42;1.98;;;2.30;99.90;;;;;;5051799;28;20032;-75
2024/03/05 02:59:25;;;;;;;7.70;2.05;;;2.30;99.90;;;;;;5051713;28;20029;-75
2024/03/05 03:01:50;;;;;;;8.27;2.67;;;2.40;99.90;;;;;;5051396;28;20422;-75
2024/03/05 03:04:16;;;;;;;5.88;2.75;;;2.50;99.90;;;;;;5051624;28;20066;-75
2024/03/05 03:06:43;;;;;;;4.13;2.28;;;2.40;99.90;;;;;;5051678;28;20558;-74
2024/03/05 03:09:09;;;;;;;5.07;2.22;;;2.30;99.90;;;;;;5051581;28;20055;-75
2024/03/05 03:11:34;;;;;;;3.70;2.40;;;2.20;99.90;;;;;;5051497;28;20434;-74
2024/03/05 03:14:00;;;;;;;3.55;2.15;;;2.30;99.90;;;;;;5052200;28;20031;-74
2024/03/05 03:16:26;;;;;;;7.10;2.47;;;2.10;99.90;;;;;;5050310;28;20052;-75
2024/03/05 03:18:52;;;;;;;5.90;2.85;;;2.30;99.90;;;;;;5052211;28;20484;-74
2024/03/05 03:21:18;;;;;;;9.02;2.95;;;2.10;99.90;;;;;;5051918;28;20372;-75
2024/03/05 03:23:44;;;;;;;5.93;2.35;;;2.10;99.90;;;;;;5054270;28;20080;-74
2024/03/05 03:26:11;;;;;;;4.80;2.83;;;2.10;99.90;;;;;;5053189;28;20013;-75
2024/03/05 03:28:37;;;;;;;6.70;2.72;;;2.10;99.90;;;;;;5052373;28;20037;-76
2024/03/05 03:31:05;;;;;;;7.53;2.80;;;2.00;99.90;;;;;;5055520;28;20036;-74
2024/03/05 03:33:31;;;;;;;3.97;2.60;;;2.00;99.90;;;;;;5052741;28;20021;-74
2024/03/05 03:35:57;;;;;;;6.75;2.28;;;2.00;99.90;;;;;;5052834;28;20079;-74
2024/03/05 03:38:23;;;;;;;6.15;3.08;;;2.10;99.90;;;;;;5053132;28;20024;-75
2024/03/05 03:40:49;;;;;;;10.73;2.90;;;2.00;99.90;;;;;;5052514;28;20021;-74
2024/03/05 03:43:15;;;;;;;5.07;2.33;;;2.10;99.90;;;;;;5055803;28;20075;-74
2024/03/05 03:45:41;;;;;;;6.60;2.67;;;2.00;99.90;;;;;;5056730;28;20023;-74
2024/03/05 03:48:07;;;;;;;4.68;2.35;;;2.00;99.90;;;;;;5057177;28;20025;-74
2024/03/05 03:50:33;;;;;;;6.28;2.05;;;2.00;99.90;;;;;;5056983;28;20111;-74
2024/03/05 03:52:59;;;;;;;6.88;2.35;;;2.00;99.90;;;;;;5058836;28;20013;-75
2024/03/05 03:55:26;;;;;;;5.18;2.40;;;2.00;99.90;;;;;;5061080;28;20025;-74
2024/03/05 03:57:52;;;;;;;4.68;2.15;;;1.90;99.90;;;;;;5058022;28;20012;-74
2024/03/05 04:00:18;;;;;;;4.28;1.90;;;1.90;99.90;;;;;;5054376;28;20398;-75
2024/03/05 04:02:45;;;;;;;6.57;2.63;;;1.90;99.90;;;;;;5054399;28;20614;-75
2024/03/05 04:05:11;;;;;;;5.53;3.08;;;1.80;99.90;;;;;;5054340;28;20452;-75
2024/03/05 04:07:37;;;;;;;8.45;2.22;;;1.70;99.90;;;;;;5054136;28;20037;-75
2024/03/05 04:10:07;;;;;;;3.83;2.15;;;1.90;99.90;;;;;;5053082;28;20113;-75
2024/03/05 04:12:33;;;;;;;5.78;2.80;;;1.80;99.90;;;;;;5054086;28;20430;-73
2024/03/05 04:15:00;;;;;;;10.23;2.15;;;1.70;99.90;;;;;;5054141;28;20555;-75
2024/03/05 04:17:26;;;;;;;3.42;2.10;;;1.70;99.90;;;;;;5054173;28;20032;-74
2024/03/05 04:19:52;;;;;;;3.20;2.08;;;1.70;99.90;;;;;;5054187;28;20024;-74
2024/03/05 04:22:18;;;;;;;5.68;2.40;;;1.70;99.90;;;;;;5054075;28;20020;-74
2024/03/05 04:24:52;;;;;;;4.25;2.83;;;1.60;99.90;;;;;;5054387;28;20395;-75
2024/03/05 04:27:19;;;;;;;10.65;2.70;;;1.60;99.90;;;;;;5054029;28;20020;-75
2024/03/05 04:29:47;;;;;;;10.32;2.50;;;1.60;99.90;;;;;;5053952;28;20032;-75
2024/03/05 04:32:14;;;;;;;8.80;2.78;;;1.70;99.90;;;;;;5053819;28;20112;-75
2024/03/05 04:34:42;;;;;;;7.63;2.20;;;1.70;99.90;;;;;;5053946;28;20028;-74
2024/03/05 04:37:10;;;;;;;4.32;2.58;;;1.70;99.90;;;;;;5052165;28;20116;-74
2024/03/05 04:39:43;;;;;;;6.07;2.78;;;1.60;99.90;;;;;;5049056;28;20501;-74
2024/03/05 04:42:09;;;;;;;5.63;2.30;;;1.60;99.90;;;;;;5052709;28;20387;-75
2024/03/05 04:44:35;;;;;;;4.70;3.08;;;1.60;99.90;;;;;;5053709;28;20028;-74
2024/03/05 04:47:01;;;;;;;5.32;2.72;;;1.60;99.90;;;;;;5047173;28;20021;-75
2024/03/05 04:49:27;;;;;;;5.88;2.95;;;1.50;99.90;;;;;;5053339;28;20033;-76
2024/03/05 04:51:53;;;;;;;3.17;1.83;;;1.60;99.90;;;;;;5052824;28;20124;-73
2024/03/05 04:54:18;;;;;;;6.25;2.78;;;1.60;99.90;;;;;;5052247;28;20096;-74
2024/03/05 04:56:44;;;;;;;3.25;2.40;;;1.60;99.90;;;;;;5053523;28;20029;-74
2024/03/05 04:59:11;;;;;;;4.75;2.40;;;1.60;99.90;;;;;;5048505;28;20087;-73
2024/03/05 05:01:37;;;;;;;4.60;2.25;;;1.60;99.90;;;;;;5052763;28;20025;-74
2024/03/05 05:04:03;;;;;;;5.82;3.28;;;1.60;99.90;;;;;;5039984;28;20033;-74
2024/03/05 05:06:28;;;;;;;3.53;2.20;;;2.80;99.90;;;;;;5052809;28;20040;-74
2024/03/05 05:08:54;;;;;;;3.80;2.35;;;2.30;99.90;;;;;;5043189;28;20404;-73
2024/03/05 05:11:20;;;;;;;2.35;2.15;;;2.30;99.90;;;;;;5047031;28;20056;-73
2024/03/05 05:13:46;;;;;;;3.90;2.53;;;1.90;99.90;;;;;;5044112;28;20030;-73
2024/03/05 05:16:12;;;;;;;8.68;3.42;;;1.80;99.90;;;;;;5043702;28;20506;-74
2024/03/05 05:18:38;;;;;;;13.50;5.85;;;1.70;99.90;;;;;;5054317;28;20029;-74
2024/03/05 05:21:07;;;;;;;5.10;3.40;;;1.60;99.90;;;;;;5052970;28;20067;-73
2024/03/05 05:23:33;;;;;;;5.75;2.45;;;1.60;99.90;;;;;;5052991;28;20487;-73
2024/03/05 05:25:59;;;;;;;3.85;2.35;;;1.50;99.90;;;;;;5048036;28;20090;-75
2024/03/05 05:28:24;;;;;;;5.20;2.47;;;1.50;99.90;;;;;;5052413;28;20111;-73
2024/03/05 05:30:50;;;;;;;5.72;2.88;;;1.50;99.90;;;;;;5054529;28;20028;-73
2024/03/05 05:33:16;;;;;;;4.13;2.53;;;1.50;99.90;;;;;;5052336;28;20471;-73
2024/03/05 05:35:42;;;;;;;3.13;2.15;;;1.50;99.90;;;;;;5052578;28;20035;-72
2024/03/05 05:38:10;;;;;;;4.97;2.90;;;1.50;99.90;;;;;;5052438;28;20079;-74
2024/03/05 05:40:36;;;;;;;4.88;2.72;;;1.70;99.90;;;;;;5052522;28;20563;-73
2024/03/05 05:43:02;;;;;;;8.07;2.63;;;1.50;99.90;;;;;;5052377;28;20104;-72
2024/03/05 05:45:28;;;;;;;4.22;2.67;;;1.50;99.90;;;;;;5052621;28;20029;-73
2024/03/05 05:47:56;;;;;;;5.43;2.60;;;1.60;99.90;;;;;;5051216;28;20494;-73
2024/03/05 05:50:25;;;;;;;5.10;2.72;;;1.50;99.90;;;;;;5052409;28;20029;-72
2024/03/05 05:52:52;;;;;;;11.95;2.95;;;1.50;99.90;;;;;;5052534;28;20028;-73
2024/03/05 05:55:22;;;;;;;7.78;2.78;;;1.50;99.90;;;;;;5052395;28;20021;-73
2024/03/05 05:57:48;;;;;;;5.20;2.65;;;1.50;99.90;;;;;;5052292;28;20028;-73
2024/03/05 06:00:22;;;;;;;4.60;2.40;;;1.50;99.90;;;;;;5050802;28;20033;-74
2024/03/05 06:02:55;;;;;;;3.75;2.45;;;1.60;99.90;;;;;;5052107;28;20017;-73
2024/03/05 06:05:27;;;;;;;5.20;2.33;;;1.50;99.90;;;;;;5051816;28;20109;-74
2024/03/05 06:07:56;;;;;;;5.30;3.42;;;1.60;99.90;;;;;;5052191;28;20487;-74
2024/03/05 06:10:24;;;;;;;4.57;2.33;;;1.80;99.90;;;;;;5052062;28;20079;-73
2024/03/05 06:12:50;;;;;;;6.60;3.33;;;1.80;99.90;;;;;;5050722;28;20032;-73
2024/03/05 06:15:19;;;;;;;4.22;2.78;;;1.70;99.90;;;;;;5052308;28;20025;-73
2024/03/05 06:17:45;;;;;;;4.78;2.45;;;1.80;99.90;;;;;;5051823;28;20051;-74
2024/03/05 06:20:12;;;;;;;5.45;3.30;;;1.90;99.90;;;;;;5051740;28;20454;-73
2024/03/05 06:22:45;;;;;;;3.65;2.92;;;1.90;99.90;;;;;;5049854;28;20028;-73
2024/03/05 06:25:13;;;;;;;8.23;2.53;;;1.90;99.90;;;;;;5045796;28;20503;-73
2024/03/05 06:27:39;;;;;;;9.95;3.40;;;2.20;99.90;;;;;;5045902;28;20057;-73
2024/03/05 06:30:17;;;;;;;4.25;3.15;;;2.20;99.90;;;;;;5051420;28;20035;-74
2024/03/05 06:32:47;;;;;;;9.07;3.05;;;2.20;99.90;;;;;;5051456;28;20029;-74
2024/03/05 06:35:17;;;;;;;9.60;3.78;;;2.20;99.90;;;;;;5050927;28;20077;-74
2024/03/05 06:37:45;;;;;;;8.88;3.00;;;2.30;99.90;;;;;;5051939;28;20080;-74
2024/03/05 06:40:11;;;;;;;3.63;3.33;;;2.60;99.90;;;;;;5051777;28;20036;-74
2024/03/05 06:42:43;;;;;;;7.25;3.42;;;2.50;99.90;;;;;;5051641;28;20017;-74
2024/03/05 06:45:14;;;;;;;8.75;3.60;;;2.60;99.90;;;;;;5051958;28;20021;-73
2024/03/05 06:47:44;;;;;;;9.70;3.42;;;2.70;99.90;;;;;;5046850;28;20032;-74
2024/03/05 06:50:19;;;;;;;7.88;3.92;;;2.70;99.90;;;;;;5044579;28;20028;-74
2024/03/05 06:58:16;;;;;;;6.15;3.75;;;2.90;99.90;;;;;;5049655;28;20085;-73
2024/03/05 07:00:43;;;;;;;12.82;5.13;;;3.00;99.90;;;;;;5047228;28;20021;-73
2024/03/05 07:03:10;;;;;;;11.50;3.75;;;3.00;99.90;;;;;;5049854;28;20151;-73
2024/03/05 07:05:36;;;;;;;6.68;3.75;;;3.10;99.90;;;;;;5050596;28;20399;-73
2024/03/05 07:08:01;;;;;;;8.57;4.30;;;5.90;99.90;;;;;;5049918;28;20086;-73
2024/03/05 07:10:28;;;;;;;8.27;4.03;;;5.20;99.90;;;;;;5051533;28;20419;-74
2024/03/05 07:12:55;;;;;;;5.28;3.88;;;4.70;99.90;;;;;;5051392;28;20510;-73
2024/03/05 07:15:21;;;;;;;6.97;3.45;;;4.40;99.90;;;;;;5051906;28;20021;-73
2024/03/05 07:17:48;;;;;;;6.88;3.50;;;4.30;99.90;;;;;;5054198;28;20495;-73
2024/03/05 07:20:22;;;;;;;3.78;2.70;;;4.30;99.90;;;;;;5055069;28;20025;-73
2024/03/05 07:22:51;;;;;;;6.45;3.20;;;4.30;99.90;;;;;;5055031;28;20096;-74
2024/03/05 07:25:17;;;;;;;7.10;2.75;;;4.40;99.90;;;;;;5055234;28;20059;-74
2024/03/05 07:27:47;;;;;;;10.98;3.05;;;4.40;99.90;;;;;;5055149;28;20025;-73
2024/03/05 07:30:17;;;;;;;5.00;3.35;;;4.60;99.90;;;;;;5054957;28;20025;-73
2024/03/05 07:32:45;;;;;;;10.05;3.80;;;4.70;99.90;;;;;;5054775;28;20067;-74
2024/03/05 07:35:15;;;;;;;7.03;3.22;;;4.90;99.90;;;;;;5055136;28;20033;-74
2024/03/05 07:37:44;;;;;;;5.43;3.40;;;5.00;99.90;;;;;;5054960;28;20561;-73
2024/03/05 07:40:16;;;;;;;9.75;3.33;;;5.20;99.90;;;;;;5054880;28;20033;-75
2024/03/05 07:42:51;;;;;;;5.70;3.80;;;5.40;99.90;;;;;;5054556;28;20070;-73
2024/03/05 07:45:17;;;;;;;7.40;3.80;;;5.50;99.90;;;;;;5053247;28;20025;-74
2024/03/05 07:47:44;;;;;;;6.90;3.33;;;5.70;99.90;;;;;;5053276;28;20036;-74
2024/03/05 07:50:12;;;;;;;6.85;3.53;;;5.80;99.90;;;;;;5052946;28;20032;-74
2024/03/05 07:52:45;;;;;;;10.68;3.53;;;6.00;99.90;;;;;;5054365;28;20036;-73
2024/03/05 07:55:16;;;;;;;5.00;3.53;;;6.20;99.90;;;;;;5054706;28;20051;-74
2024/03/05 07:57:43;;;;;;;8.68;3.63;;;6.30;99.90;;;;;;5054693;28;20148;-74
2024/03/05 08:00:13;;;;;;;4.47;3.50;;;6.50;99.90;;;;;;5054318;28;20025;-74
2024/03/05 08:02:41;;;;;;;16.92;5.45;;;6.70;99.90;;;;;;5054064;28;20029;-74
2024/03/05 08:05:08;;;;;;;5.47;3.65;;;6.80;99.90;;;;;;5054441;28;20394;-73
2024/03/05 08:07:37;;;;;;;7.60;4.03;;;6.90;99.90;;;;;;5054380;28;20487;-75
2024/03/05 08:10:07;;;;;;;7.35;4.07;;;7.00;99.90;;;;;;5054254;28;20031;-74
2024/03/05 08:12:37;;;;;;;8.82;3.92;;;7.30;99.90;;;;;;5058084;28;20039;-74
2024/03/05 08:15:04;;;;;;;17.30;4.20;;;7.50;99.90;;;;;;5061730;28;20096;-73
2024/03/05 08:17:36;;;;;;;12.20;3.83;;;7.80;99.90;;;;;;5060956;28;20029;-73
2024/03/05 08:20:03;;;;;;;7.07;4.15;;;8.10;99.90;;;;;;5059245;28;20021;-75
2024/03/05 08:22:29;;;;;;;8.57;5.07;;;8.20;99.90;;;;;;5060006;28;20017;-74
2024/03/05 08:24:54;;;;;;;9.20;4.47;;;8.40;99.90;;;;;;5054283;28;20024;-73
2024/03/05 08:27:20;;;;;;;8.73;4.30;;;8.50;99.90;;;;;;5053789;28;20108;-73
2024/03/05 08:29:49;;;;;;;10.38;4.03;;;8.60;99.90;;;;;;5054072;28;20090;-73
2024/03/05 08:32:16;;;;;;;7.68;4.63;;;9.40;99.90;;;;;;5054434;28;20043;-73
2024/03/05 08:34:42;;;;;;;8.27;4.70;;;9.50;99.90;;;;;;5054476;28;20103;-74
2024/03/05 08:37:11;;;;;;;5.50;3.97;;;9.60;99.90;;;;;;5054234;28;20021;-74
2024/03/05 08:39:39;;;;;;;7.50;4.20;;;9.70;99.90;;;;;;5054257;28;20029;-73
2024/03/05 08:42:05;;;;;;;8.02;4.18;;;9.90;99.90;;;;;;5053789;28;20017;-74
2024/03/05 08:44:31;;;;;;;8.63;4.07;;;9.90;99.90;;;;;;5053855;28;20028;-73
2024/03/05 08:46:57;;;;;;;8.05;3.55;;;10.20;99.90;;;;;;5053854;28;20021;-72
2024/03/05 08:49:25;;;;;;;11.65;4.57;;;10.50;99.90;;;;;;5053829;28;20031;-73
2024/03/05 08:51:54;;;;;;;6.15;3.88;;;10.80;99.90;;;;;;5053856;28;20415;-74
2024/03/05 08:54:20;;;;;;;6.03;3.92;;;11.10;99.40;;;;;;5054223;28;20107;-75
2024/03/05 08:56:47;;;;;;;7.75;3.47;;;11.50;98.20;;;;;;5054348;28;20031;-74
2024/03/05 08:59:12;;;;;;;4.72;3.45;;;11.70;96.50;;;;;;5053916;28;20659;-74
2024/03/05 09:01:38;;;;;;;9.20;3.92;;;12.00;95.80;;;;;;5054398;28;20107;-74
2024/03/05 09:04:07;;;;;;;7.32;3.50;;;12.20;95.00;;;;;;5054147;28;20021;-73
2024/03/05 09:06:33;;;;;;;9.73;4.35;;;12.30;94.50;;;;;;5053888;28;20090;-74
2024/03/05 09:08:58;;;;;;;5.25;3.40;;;12.50;93.20;;;;;;5053754;28;20044;-74
2024/03/05 09:11:24;;;;;;;5.50;3.28;;;12.70;90.70;;;;;;5053420;28;20076;-76
2024/03/05 09:13:50;;;;;;;6.57;3.50;;;12.90;89.00;;;;;;5054181;28;20025;-74
2024/03/05 09:16:17;;;;;;;7.70;3.67;;;13.00;86.00;;;;;;5053744;28;20033;-73
2024/03/05 09:18:42;;;;;;;16.45;5.07;;;13.10;88.70;;;;;;5052422;28;20103;-76
2024/03/05 09:21:09;;;;;;;6.05;3.42;;;13.30;84.00;;;;;;5053043;28;20048;-74
2024/03/05 09:23:36;;;;;;;10.35;3.22;;;13.40;79.50;;;;;;5053302;28;20021;-74
2024/03/05 09:26:03;;;;;;;6.43;3.72;;;13.40;77.30;;;;;;5053274;28;20025;-74
2024/03/05 09:28:31;;;;;;;5.43;3.03;;;13.40;74.50;;;;;;5053467;28;20090;-75
2024/03/05 09:30:57;;;;;;;5.22;3.13;;;13.50;73.90;;;;;;5053710;28;20091;-72
2024/03/05 09:33:24;;;;;;;6.13;2.92;;;13.50;75.20;;;;;;5053562;28;20028;-73
2024/03/05 09:35:49;;;;;;;6.93;2.75;;;13.40;72.80;;;;;;5053332;28;20471;-73
2024/03/05 09:38:16;;;;;;;10.18;4.15;;;13.50;72.00;;;;;;5053282;28;20079;-72
2024/03/05 09:40:42;;;;;;;7.43;3.15;;;13.40;72.80;;;;;;5052550;28;20387;-73
2024/03/05 09:43:09;;;;;;;4.47;3.10;;;13.40;72.00;;;;;;5052708;28;20489;-73
2024/03/05 09:45:37;;;;;;;8.85;3.15;;;13.40;73.30;;;;;;5053391;28;20032;-73
2024/03/05 09:48:03;;;;;;;6.57;2.70;;;13.40;71.30;;;;;;5053281;28;20013;-73
2024/03/05 09:50:31;;;;;;;8.65;2.67;;;13.30;71.30;;;;;;5052853;28;20036;-72
2024/03/05 09:52:59;;;;;;;4.60;3.05;;;13.30;70.90;;;;;;5053125;28;20029;-73
2024/03/05 09:55:25;;;;;;;12.38;3.58;;;13.30;71.60;;;;;;5052891;28;20032;-73
2024/03/05 09:57:54;;;;;;;11.13;3.25;;;13.40;73.10;;;;;;5053108;28;20109;-73
2024/03/05 10:00:21;;;;;;;5.20;2.50;;;13.40;74.40;;;;;;5052749;28;20059;-73
2024/03/05 10:02:49;;;;;;;6.72;2.60;;;13.50;74.60;;;;;;5052967;28;20484;-72
2024/03/05 10:05:25;;;;;;;6.07;2.70;;;13.50;73.20;;;;;;5052610;28;20410;-73
2024/03/05 10:07:50;;;;;;;4.53;2.47;;;13.50;73.10;;;;;;5052636;28;20013;-72
2024/03/05 10:10:21;;;;;;;4.93;2.88;;;13.60;70.30;;;;;;5052878;28;20383;-73
2024/03/05 10:12:47;;;;;;;3.95;2.67;;;13.60;69.60;;;;;;5052710;28;20036;-72
2024/03/05 10:15:23;;;;;;;4.32;2.58;;;13.70;69.80;;;;;;5052796;28;20021;-73
2024/03/05 10:17:52;;;;;;;3.20;2.20;;;13.70;71.30;;;;;;5052895;28;20061;-73
2024/03/05 10:20:36;;;;;;;11.40;2.42;;;13.60;68.70;;;;;;5052418;28;20074;-73
2024/03/05 10:23:03;;;;;;;4.05;2.35;;;13.60;71.60;;;;;;5052300;28;20036;-73
2024/03/05 10:25:31;;;;;;;3.03;1.88;;;13.60;73.00;;;;;;5052310;28;20021;-73
2024/03/05 10:27:57;;;;;;;5.72;2.13;;;13.50;75.00;;;;;;5052297;28;20017;-73
2024/03/05 10:30:33;;;;;;;5.95;2.97;;;13.50;75.10;;;;;;5052224;28;20031;-74
2024/03/05 10:33:04;;;;;;;9.48;2.95;;;13.50;70.70;;;;;;5052234;28;20029;-73
2024/03/05 10:35:31;;;;;;;5.93;3.03;;;13.50;70.40;;;;;;5052201;28;20028;-73
2024/03/05 10:37:57;;;;;;;102.10;36.03;;;13.50;74.20;;;;;;5052337;28;20087;-74
2024/03/05 10:40:24;;;;;;;10.63;5.75;;;13.50;76.60;;;;;;5048699;28;20032;-73
2024/03/05 10:42:53;;;;;;;6.63;3.05;;;13.50;75.60;;;;;;5043197;28;20025;-74
2024/03/05 10:45:28;;;;;;;7.18;2.30;;;13.60;76.10;;;;;;5044910;28;20506;-73
2024/03/05 10:47:58;;;;;;;6.82;2.60;;;13.60;75.90;;;;;;5049212;28;20025;-73
2024/03/05 10:50:26;;;;;;;6.38;2.15;;;13.70;72.80;;;;;;5069469;22;20501;-74
2024/03/05 10:52:54;;;;;;;3.88;2.38;;;13.70;75.70;;;;;;5033680;28;20381;-74
2024/03/05 10:55:21;;;;;;;20.73;4.65;;;13.70;72.00;;;;;;5034804;28;20022;-73
2024/03/05 11:00:39;;;;;;;6.22;2.97;;;13.70;67.90;;;;;;5029981;28;20543;-74
2024/03/05 11:03:10;;;;;;;7.03;3.20;;;13.70;66.70;;;;;;5034817;28;20021;-73
2024/03/05 11:05:49;;;;;;;6.05;2.58;;;13.80;67.90;;;;;;5034234;28;20104;-74
2024/03/05 11:08:20;;;;;;;6.93;2.83;;;13.70;68.50;;;;;;5035146;28;20068;-74
2024/03/05 11:10:52;;;;;;;4.63;2.72;;;13.70;67.40;;;;;;5032996;28;20025;-73
2024/03/05 11:13:19;;;;;;;4.38;2.50;;;13.70;66.40;;;;;;5025143;28;20021;-74
2024/03/05 11:15:45;;;;;;;4.57;2.85;;;13.70;66.50;;;;;;5033612;28;20081;-74
2024/03/05 11:18:33;;;;;;;7.35;3.10;;;13.70;67.10;;;;;;5033647;28;20427;-73
2024/03/05 11:21:10;;;;;;;7.28;2.90;;;13.70;67.40;;;;;;5034696;28;20083;-73
2024/03/05 11:23:53;;;;;;;10.30;2.20;;;13.60;68.40;;;;;;5033815;28;20060;-73
2024/03/05 11:26:22;;;;;;;5.97;2.05;;;13.60;71.40;;;;;;5034204;28;20056;-73
2024/03/05 11:28:50;;;;;;;3.78;2.42;;;13.60;74.70;;;;;;5033498;28;20076;-74
2024/03/05 11:31:19;;;;;;;7.65;2.50;;;13.60;78.20;;;;;;5034199;28;20105;-74
2024/03/05 11:33:45;;;;;;;8.13;2.83;;;13.50;79.40;;;;;;5033096;28;20026;-73
2024/03/05 11:36:24;;;;;;;9.80;3.65;;;13.60;78.30;;;;;;5037876;28;20064;-74
2024/03/05 11:39:09;;;;;;;3.80;2.50;;;13.70;76.90;;;;;;5033973;28;20053;-73
2024/03/05 11:41:43;;;;;;;5.00;2.63;;;13.70;82.40;;;;;;5029899;28;20104;-73
2024/03/05 11:44:13;;;;;;;3.92;2.92;;;13.70;83.70;;;;;;5033586;28;20259;-73
2024/03/05 11:46:43;;;;;;;3.35;2.45;;;13.70;84.30;;;;;;5036247;28;20100;-73
2024/03/05 11:49:10;;;;;;;6.80;2.90;;;13.90;85.10;;;;;;5041254;28;20029;-74
2024/03/05 11:51:38;;;;;;;4.20;2.50;;;13.90;85.30;;;;;;5034038;28;20496;-74
2024/03/05 11:54:04;;;;;;;4.72;2.50;;;14.10;84.00;;;;;;5034509;28;20120;-74
2024/03/05 11:56:29;;;;;;;4.63;3.97;;;14.20;83.80;;;;;;5034198;28;20447;-74
2024/03/05 11:58:55;;;;;;;6.50;2.55;;;14.30;85.20;;;;;;5034270;28;20109;-74
2024/03/05 12:01:23;;;;;;;6.28;1.95;;;14.40;83.80;;;;;;5034023;28;20024;-74
2024/03/05 12:04:05;;;;;;;4.70;2.13;;;14.50;84.80;;;;;;5031657;28;20480;-73
2024/03/05 12:06:32;;;;;;;4.03;1.85;;;14.60;84.40;;;;;;5027381;28;20017;-74
2024/03/05 12:09:21;;;;;;;4.43;2.17;;;14.70;82.40;;;;;;5034060;28;20025;-74
2024/03/05 12:12:18;;;;;;;6.97;2.38;;;14.70;83.30;;;;;;5049249;28;20124;-73
2024/03/05 12:14:50;;;;;;;4.25;2.28;;;14.80;82.90;;;;;;5028707;28;20500;-75
2024/03/05 12:17:18;;;;;;;3.00;2.00;;;14.70;81.00;;;;;;5032196;28;20503;-74
2024/03/05 12:19:46;;;;;;;6.85;2.30;;;14.70;79.90;;;;;;5032542;28;20028;-74
2024/03/05 12:22:12;;;;;;;9.80;5.40;;;14.80;80.10;;;;;;5033380;28;20084;-74
2024/03/05 12:24:38;;;;;;;17.85;8.88;;;15.00;80.70;;;;;;5032550;28;20056;-74
2024/03/05 12:27:05;;;;;;;4.95;3.10;;;15.20;80.20;;;;;;5033672;28;20049;-74
2024/03/05 12:29:33;;;;;;;22.75;9.65;;;15.30;74.20;;;;;;5032634;28;20095;-74
2024/03/05 12:32:06;;;;;;;9.85;4.18;;;15.50;75.20;;;;;;5031131;28;20530;-75
2024/03/05 12:34:33;;;;;;;6.13;3.15;;;15.50;74.00;;;;;;5032904;28;20542;-73
2024/03/05 12:36:58;;;;;;;8.38;3.80;;;15.50;74.80;;;;;;5033389;28;20029;-73
2024/03/05 12:39:25;;;;;;;6.28;2.40;;;15.70;79.50;;;;;;5029962;28;20542;-73
2024/03/05 12:42:07;;;;;;;13.50;7.22;;;15.60;78.70;;;;;;5032156;28;20021;-74
2024/03/05 12:44:34;;;;;;;7.35;4.45;;;15.60;69.80;;;;;;5011954;28;20021;-74
2024/03/05 12:47:06;;;;;;;4.55;2.65;;;15.50;66.00;;;;;;5012730;28;20026;-74
2024/03/05 12:49:32;;;;;;;4.57;3.17;;;15.30;61.80;;;;;;5011646;28;20026;-74
2024/03/05 12:52:07;;;;;;;10.07;3.63;;;15.20;59.30;;;;;;5027038;28;20328;-74
2024/03/05 12:54:34;;;;;;;6.65;2.60;;;15.20;57.20;;;;;;5012693;28;20431;-74
2024/03/05 12:56:59;;;;;;;3.78;2.22;;;15.20;55.40;;;;;;5029044;28;20037;-73
2024/03/05 12:59:25;;;;;;;4.60;3.03;;;15.20;55.30;;;;;;5015449;28;20515;-74
2024/03/05 13:01:56;;;;;;;3.75;2.33;;;15.10;56.90;;;;;;5013146;28;20026;-74
2024/03/05 13:04:25;;;;;;;7.97;1.98;;;15.10;57.40;;;;;;5013433;28;20069;-74